Tiempo atmosférico en la estación meteorológica de Alburquerque, Badajoz (283 m.)



Fecha
DESCASC
Temp. máxima en grados centígrados (hora)
DESCASC
Temp. mínima en grados centígrados (hora)
DESCASC
Temp. media en grados centígrados
DESCASC
Racha de viento máxima en m/sg (hora)
DESCASC
Velocidad máxima media en intervalos de 10 minutos(hora)
DESCASC
Precipitaciones diarias en mm
DESCASC
Precipitaciones de 00:00 a 06:00 en mm
DESCASC
Precipitaciones de 06:00 a 12:00 en mm
DESCASC
Precipitaciones de 12:00 a 18:00 en mm
DESCASC
Precipitaciones de 18:00 a 24:00 en mm
DESCASC
10-07-2020 38.2 (17:20) 17.4 (07:40) 27.8 7.78 (20:50) 4.17 (20:50) 0 0 0 0 0
09-07-2020 35.5 (20:00) 14.4 (07:40) 24.9 6.11 (15:20) 3.61 (16:30) 0 0 0 0 0
08-07-2020 34.7 (17:40) 16.9 (07:40) 25.8 8.89 (15:30) 4.72 (20:00) 0 0 0 0 0
07-07-2020 40.1 (17:40) 15.3 (07:10) 27.7 10.28 (15:00) 4.72 (17:10) 0 0 0 0 0
06-07-2020 41.8 (18:00) 20.3 (00:00) 31 8.33 (19:10) 4.17 (20:30) 0 0 0 0 0
05-07-2020 40.1 (18:10) 17.9 (00:00) 29 10 (18:20) 4.72 (18:20) 0 0 0 0 0
04-07-2020 37.7 (18:10) 15.5 (00:00) 26.6 6.39 (12:30) 3.61 (13:50) 0 0 0 0 0
03-07-2020 33.9 (18:10) 10.8 (07:00) 22.4 8.89 (14:50) 2.78 (14:50) 0 0 0 0 0
02-07-2020 30.9 (16:50) 13.9 (00:00) 22.4 9.72 (13:50) 5.28 (19:20) 0 0 0 0 0
01-07-2020 34.9 (18:20) 15.2 (00:00) 25.1 8.33 (17:00) 4.72 (20:40) 0 0 0 0 0
30-06-2020 36.7 (16:40) 17.4 (00:00) 27.1 10 (18:40) 4.72 (17:00) 0 0 0 0 0
29-06-2020 37.1 (18:20) 20.4 (00:00) 28.7 8.89 (17:30) 3.61 (16:50) 0 0 0 0 0
28-06-2020 35.4 (19:10) 17.3 (00:00) 26.4 8.06 (15:50) 3.61 (17:00) 0 0 0 0 0
27-06-2020 32 (17:40) 14.4 (00:00) 23.2 8.33 (17:10) 4.44 (20:30) 0 0 0 0 0
26-06-2020 28.7 (19:30) 10.8 (00:00) 19.8 8.61 (16:50) 4.44 (19:10) 0 0 0 0 0
25-06-2020 32.2 (16:40) 15.5 (00:00) 23.9 10 (15:30) 4.72 (16:40) 0 0 0 0 0
24-06-2020 34.3 (17:20) 17.6 (00:00) 25.9 8.06 (11:40) 3.89 (11:20) 0 0 0 0 0
23-06-2020 39 (18:10) 17.6 (00:00) 28.3 7.22 (18:20) 3.61 (14:30) 0 0 0 0 0
22-06-2020 39 (18:50) 19.1 (00:00) 29.1 6.67 (15:20) 3.61 (15:20) 0 0 0 0 0
21-06-2020 35 (18:10) 10.5 (00:00) 22.8 8.89 (14:50) 4.17 (18:50) 0 0 0 0 0
20-06-2020 32.8 (17:10) 10.4 (00:00) 21.6 10 (18:10) 4.17 (17:30) 0 0 0 0 0
19-06-2020 30.6 (18:20) 9.3 (00:00) 20 10.56 (18:40) 4.17 (19:20) 0 0 0 0 0
18-06-2020 29.3 (17:50) 8.9 (00:00) 19.1 9.17 (21:00) 4.72 (20:50) 0 0 0 0 0
17-06-2020 26.5 (18:00) 11.3 (00:00) 18.9 10 (14:00) 4.72 (16:10) 0 0 0 0 0
16-06-2020 27.6 (17:40) 10.6 (00:00) 19.1 10.28 (19:20) 5.83 (18:10) 0 0 0 0 0
15-06-2020 27.3 (18:10) 8.4 (00:00) 17.8 8.89 (17:30) 4.72 (20:10) 0 0 0 0 0

Gráficas

Temp. máximas Temp. mínimas Temp. medias Precipitaciones Rachas de viento máximas Velocidades máximas media en intervalos de 10 minutos

Datos horarios

Fecha y hora oficial Temperatura (ºC) Velocidad del viento (km/h) Dirección del viento Racha (km/h) Dirección de racha Precipitación (mm) Presión (hPa) Tendencia (hPa) Humedad (%)
2020-07-14 23:00:00 31.5 14 Nordeste 27 Nordeste 0 -- -- 27
2020-07-14 22:00:00 32.9 11 Nordeste 22 Nordeste 0 -- -- 24
2020-07-14 21:00:00 35.3 8 Nordeste 27 Nordeste 0 -- -- 22
2020-07-14 20:00:00 36.7 11 Norte 27 Norte 0 -- -- 22
2020-07-14 19:00:00 37.3 13 Norte 36 Norte 0 -- -- 22
2020-07-14 18:00:00 37.7 11 Norte 30 Oeste 0 -- -- 25
2020-07-14 17:00:00 37.2 8 Sudeste 26 Norte 0 -- -- 25
2020-07-14 16:00:00 37.2 11 Nordeste 29 Norte 0 -- -- 25
2020-07-14 15:00:00 36.6 13 Nordeste 31 Norte 0 -- -- 26
2020-07-14 14:00:00 35.8 15 Norte 27 Norte 0 -- -- 26
2020-07-14 13:00:00 35.2 13 Norte 28 Norte 0 -- -- 28
2020-07-14 12:00:00 33.8 15 Nordeste 30 Norte 0 -- -- 30
2020-07-14 11:00:00 32.2 18 Nordeste 30 Nordeste 0 -- -- 33
2020-07-14 10:00:00 29.3 14 Nordeste 26 Nordeste 0 -- -- 38
2020-07-14 09:00:00 26.4 4 Oeste 18 Norte 0 -- -- 42
2020-07-14 08:00:00 24.1 9 Noroeste 19 Noroeste 0 -- -- 45
2020-07-14 07:00:00 23.5 11 Norte 19 Norte 0 -- -- 46
2020-07-14 06:00:00 23.6 4 Sudoeste 14 Noroeste 0 -- -- 44
2020-07-14 05:00:00 26.4 8 Norte 18 Nordeste 0 -- -- 39
2020-07-14 04:00:00 27.6 8 Norte 23 Nordeste 0 -- -- 37
2020-07-14 03:00:00 26.5 8 Nordeste 17 Norte 0 -- -- 37
2020-07-14 02:00:00 28.8 8 Nordeste 21 Norte 0 -- -- 33
2020-07-14 01:00:00 30.1 11 Norte 24 Nordeste 0 -- -- 32
2020-07-14 00:00:00 31.1 13 Nordeste 23 Norte 0 -- -- 32
2020-07-13 23:00:00 32.4 15 Nordeste 30 Nordeste 0 -- -- 31
2020-07-13 22:00:00 34 12 Norte 25 Nordeste 0 -- -- 28
2020-07-13 21:00:00 36.1 9 Norte 25 Norte 0 -- -- 26
2020-07-13 20:00:00 37.5 11 Norte 29 Noroeste 0 -- -- 25
2020-07-13 19:00:00 37.9 10 Norte 27 Nordeste 0 -- -- 25
2020-07-13 18:00:00 37.9 10 Este 24 Nordeste 0 -- -- 25
2020-07-13 17:00:00 37.7 13 Norte 30 Norte 0 -- -- 25
2020-07-13 16:00:00 37.6 9 Nordeste 35 Norte 0 -- -- 26
2020-07-13 15:00:00 36.5 14 Nordeste 30 Norte 0 -- -- 28
2020-07-13 14:00:00 36.1 17 Nordeste 31 Nordeste 0 -- -- 29
2020-07-13 13:00:00 35.2 14 Este 27 Nordeste 0 -- -- 32
2020-07-13 12:00:00 33.2 12 Nordeste 26 Nordeste 0 -- -- 37
2020-07-13 11:00:00 31.5 8 Nordeste 23 Nordeste 0 -- -- 42
2020-07-13 10:00:00 29.6 10 Nordeste 20 Nordeste 0 -- -- 47
2020-07-13 09:00:00 27.3 8 Nordeste 20 Nordeste 0 -- -- 52
2020-07-13 08:00:00 23.3 3 Norte 9 Noroeste 0 -- -- 58
2020-07-13 07:00:00 23.1 3 Sur 14 Nordeste 0 -- -- 55
2020-07-13 06:00:00 24.1 3 Oeste 20 Norte 0 -- -- 51
2020-07-13 05:00:00 24.6 6 Noroeste 16 Norte 0 -- -- 51
2020-07-13 04:00:00 24.6 5 Norte 11 Norte 0 -- -- 49
2020-07-13 03:00:00 26.1 0 Calma 15 Nordeste 0 -- -- 43
2020-07-13 02:00:00 28.1 10 Norte 19 Nordeste 0 -- -- 40
2020-07-13 01:00:00 29.3 11 Nordeste 23 Nordeste 0 -- -- 38
2020-07-13 00:00:00 30.1 12 Nordeste 23 Nordeste 0 -- -- 38
2020-07-12 23:00:00 31.1 11 Nordeste 26 Nordeste 0 -- -- 36
2020-07-12 22:00:00 32.8 15 Nordeste 31 Nordeste 0 -- -- 32
2020-07-12 21:00:00 35.3 12 Norte 26 Nordeste 0 -- -- 27
2020-07-12 20:00:00 36.4 13 Norte 26 Norte 0 -- -- 25
2020-07-12 19:00:00 37.4 11 Noroeste 24 Nordeste 0 -- -- 25
2020-07-12 18:00:00 37.3 10 Nordeste 32 Este 0 -- -- 26
2020-07-12 17:00:00 36.9 6 Este 21 Nordeste 0 -- -- 27
2020-07-12 16:00:00 37 11 Norte 22 Norte 0 -- -- 28
2020-07-12 15:00:00 36.4 9 Norte 22 Nordeste 0 -- -- 28
2020-07-12 14:00:00 35.3 7 Oeste 22 Nordeste 0 -- -- 29
2020-07-12 13:00:00 33.7 9 Nordeste 23 Nordeste 0 -- -- 34
2020-07-12 12:00:00 32.5 9 Este 19 Nordeste 0 -- -- 36
2020-07-12 11:00:00 31 10 Este 23 Nordeste 0 -- -- 38
2020-07-12 10:00:00 28.3 12 Nordeste 22 Nordeste 0 -- -- 42
2020-07-12 09:00:00 23.2 3 Noroeste 7 Nordeste 0 -- -- 54
2020-07-12 08:00:00 19.9 2 Este 8 Este 0 -- -- 61
2020-07-12 07:00:00 20.3 3 Norte 8 Nordeste 0 -- -- 58
2020-07-12 06:00:00 21.7 2 Noroeste 13 Noroeste 0 -- -- 55
2020-07-12 05:00:00 23.5 3 Este 28 Nordeste 0 -- -- 50
2020-07-12 04:00:00 22.7 7 Norte 20 Norte 0 -- -- 53
2020-07-12 03:00:00 23.5 6 Oeste 10 Noroeste 0 -- -- 51
2020-07-12 02:00:00 24.8 3 Sudoeste 19 Nordeste 0 -- -- 48
2020-07-12 01:00:00 26.1 8 Norte 26 Noroeste 0 -- -- 45
2020-07-12 00:00:00 27.1 7 Noroeste 22 Norte 0 -- -- 45
2020-07-11 23:00:00 28.3 8 Noroeste 41 Norte 0 -- -- 42
2020-07-11 22:00:00 30.7 19 Norte 48 Norte 0 -- -- 37
2020-07-11 21:00:00 36.7 7 Oeste 20 Oeste 0 -- -- 26
2020-07-11 20:00:00 38 6 Sudoeste 21 Sudeste 0 -- -- 24
2020-07-11 19:00:00 37.9 9 Sur 21 Sur 0 -- -- 23
2020-07-11 18:00:00 38.8 12 Sur 26 Sur 0 -- -- 22
2020-07-11 17:00:00 39.8 13 Sudeste 28 Sudoeste 0 -- -- 22
2020-07-11 16:00:00 38.6 12 Sudeste 33 Sudeste 0 -- -- 23
2020-07-11 15:00:00 38.3 15 Sur 28 Sur 0 -- -- 25
2020-07-11 14:00:00 37.1 15 Sur 27 Sudeste 0 -- -- 27
2020-07-11 13:00:00 35.9 14 Sur 26 Sur 0 -- -- 29
2020-07-11 12:00:00 34.7 8 Sudeste 19 Este 0 -- -- 33
2020-07-11 11:00:00 32.2 7 Sudeste 17 Sur 0 -- -- 37
2020-07-11 10:00:00 29.4 7 Este 15 Este 0 -- -- 44
2020-07-11 09:00:00 24.3 4 Sur 6 Sur 0 -- -- 60
2020-07-11 08:00:00 18.7 4 Sudeste 6 Nordeste 0 -- -- 64
2020-07-11 07:00:00 19.7 0 Calma 6 Este 0 -- -- 60
2020-07-11 06:00:00 19.8 0 Calma 6 Norte 0 -- -- 56
2020-07-11 05:00:00 20.5 0 Calma 5 Noroeste 0 -- -- 55
2020-07-11 04:00:00 21.1 2 Norte 6 Nordeste 0 -- -- 52
2020-07-11 03:00:00 21.2 3 Sudeste 5 Sudeste 0 -- -- 53
2020-07-11 02:00:00 22.2 0 Calma 5 Nordeste 0 -- -- 51
2020-07-11 01:00:00 24 0 Calma 6 Norte 0 -- -- 49
2020-07-11 00:00:00 26.8 0 Calma 9 Norte 0 -- -- 42
2020-07-10 23:00:00 30.6 5 Noroeste 17 Norte 0 -- -- 36
2020-07-10 22:00:00 32.8 10 Noroeste 24 Oeste 0 -- -- 31
2020-07-10 21:00:00 35.3 13 Noroeste 28 Oeste 0 -- -- 27
2020-07-10 20:00:00 37.4 12 Noroeste 24 Oeste 0 -- -- 25
2020-07-10 19:00:00 37.4 8 Noroeste 17 Norte 0 -- -- 25
2020-07-10 18:00:00 37.2 7 Noroeste 19 Oeste 0 -- -- 25
2020-07-10 17:00:00 37.5 7 Sudeste 22 Noroeste 0 -- -- 23
2020-07-10 16:00:00 37.6 9 Oeste 22 Norte 0 -- -- 24
2020-07-10 15:00:00 36.7 9 Nordeste 24 Norte 0 -- -- 26
2020-07-10 14:00:00 35.8 8 Nordeste 17 Nordeste 0 -- -- 27
2020-07-10 13:00:00 34.3 6 Este 15 Nordeste 0 -- -- 29
2020-07-10 12:00:00 32.2 5 Sudeste 14 Sudeste 0 -- -- 32
2020-07-10 11:00:00 30 5 Sur 12 Sudeste 0 -- -- 36
2020-07-10 10:00:00 25.1 2 Norte 6 Noroeste 0 -- -- 56
2020-07-10 09:00:00 20.8 2 Oeste 6 Oeste 0 -- -- 69
2020-07-10 08:00:00 17.5 0 Calma 5 Sudeste 0 -- -- 76
2020-07-10 07:00:00 18 2 Sudeste 8 Sur 0 -- -- 74
2020-07-10 06:00:00 18.9 5 Sur 12 Sudeste 0 -- -- 71
2020-07-10 05:00:00 19.8 3 Sur 5 Sur 0 -- -- 64
2020-07-10 04:00:00 21.2 3 Este 10 Noroeste 0 -- -- 63
2020-07-10 03:00:00 23.2 0 Calma 21 Noroeste 0 -- -- 57
2020-07-10 02:00:00 23.1 4 Noroeste 11 Oeste 0 -- -- 57
2020-07-10 01:00:00 25.9 3 Noroeste 12 Noroeste 0 -- -- 50
2020-07-10 00:00:00 27.8 7 Noroeste 14 Norte 0 -- -- 47
2020-07-09 23:00:00 27.3 5 Noroeste 15 Oeste 0 -- -- 37
2020-07-09 22:00:00 28.4 0 Calma 6 Oeste 0 -- -- 28
2020-07-09 21:00:00 34.4 4 Sur 10 Sur 0 -- -- 19
2020-07-09 20:00:00 35.5 0 Calma 21 Noroeste 0 -- -- 18
2020-07-09 19:00:00 35.1 8 Sudoeste 17 Oeste 0 -- -- 19
2020-07-09 18:00:00 34.9 9 Oeste 19 Sudoeste 0 -- -- 19
2020-07-09 17:00:00 34.6 9 Sur 21 Sudoeste 0 -- -- 20
2020-07-09 16:00:00 34 7 Sudeste 22 Sudeste 0 -- -- 20
2020-07-09 15:00:00 31.9 7 Oeste 20 Sur 0 -- -- 27
2020-07-09 14:00:00 31 7 Sudeste 17 Sur 0 -- -- 29
2020-07-09 13:00:00 28.5 7 Sudoeste 17 Sur 0 -- -- 41
2020-07-09 12:00:00 26.4 8 Sudeste 15 Sudeste 0 -- -- 48
2020-07-09 11:00:00 23.3 4 Sudeste 12 Sur 0 -- -- 62
2020-07-09 10:00:00 19.9 4 Oeste 10 Oeste 0 -- -- 73
2020-07-09 09:00:00 17.4 2 Sur 6 Sudeste 0 -- -- 83
2020-07-09 08:00:00 14.4 2 Sudeste 6 Sudeste 0 -- -- 85
2020-07-09 07:00:00 15.2 2 Sudoeste 13 Oeste 0 -- -- 81
2020-07-09 06:00:00 16 3 Oeste 14 Sudoeste 0 -- -- 82
2020-07-09 05:00:00 17.1 4 Sudoeste 15 Sudoeste 0 -- -- 78
2020-07-09 04:00:00 17.6 3 Sur 10 Sudoeste 0 -- -- 76
2020-07-09 03:00:00 17.7 2 Sur 6 Oeste 0 -- -- 72
2020-07-09 02:00:00 19.2 0 Calma 9 Oeste 0 -- -- 65
2020-07-09 01:00:00 20.9 3 Noroeste 8 Oeste 0 -- -- 58
2020-07-09 00:00:00 25 5 Oeste 15 Oeste 0 -- -- 45
2020-07-08 23:00:00 26.7 5 Noroeste 20 Noroeste 0 -- -- 42
2020-07-08 22:00:00 28.8 10 Oeste 23 Oeste 0 -- -- 37
2020-07-08 21:00:00 31.7 11 Oeste 28 Noroeste 0 -- -- 30
2020-07-08 20:00:00 33.3 17 Oeste 31 Noroeste 0 -- -- 25
2020-07-08 19:00:00 34.2 14 Oeste 29 Oeste 0 -- -- 20
2020-07-08 18:00:00 34.2 17 Noroeste 30 Oeste 0 -- -- 21
2020-07-08 17:00:00 34.2 15 Oeste 32 Noroeste 0 -- -- 21
2020-07-08 16:00:00 33.7 16 Oeste 32 Oeste 0 -- -- 23
2020-07-08 15:00:00 33.2 17 Oeste 30 Sudoeste 0 -- -- 27
2020-07-08 14:00:00 31.9 14 Oeste 28 Oeste 0 -- -- 31
2020-07-08 13:00:00 29.7 14 Oeste 24 Sudoeste 0 -- -- 37
2020-07-08 12:00:00 26.8 13 Sudoeste 22 Sudoeste 0 -- -- 44
2020-07-08 11:00:00 22.9 9 Oeste 18 Oeste 0 -- -- 62
2020-07-08 10:00:00 19.6 9 Sudoeste 17 Sudoeste 0 -- -- 72
2020-07-08 09:00:00 19.3 5 Sudoeste 10 Sudoeste 0 -- -- 69
2020-07-08 08:00:00 17.1 0 Calma 5 Sudeste 0 -- -- 70
2020-07-08 07:00:00 17.6 0 Calma 6 Este 0 -- -- 68
2020-07-08 06:00:00 19.6 0 Calma 4 Sudoeste 0 -- -- 63
2020-07-08 05:00:00 21.1 0 Calma 4 Oeste 0 -- -- 59
2020-07-08 04:00:00 22.6 3 Nordeste 7 Noroeste 0 -- -- 56
2020-07-08 03:00:00 23.6 0 Calma 10 Nordeste 0 -- -- 50
2020-07-08 02:00:00 24.2 0 Calma 8 Noroeste 0 -- -- 39
2020-07-08 01:00:00 25.2 4 Oeste 8 Noroeste 0 -- -- 36
2020-07-08 00:00:00 26.2 0 Calma 5 Noroeste 0 -- -- 35
2020-07-07 23:00:00 28.3 0 Calma 5 Noroeste 0 -- -- 32
2020-07-07 22:00:00 33.9 4 Noroeste 10 Noroeste 0 -- -- 24
2020-07-07 21:00:00 37.4 7 Noroeste 19 Noroeste 0 -- -- 20
2020-07-07 20:00:00 38.7 10 Noroeste 23 Oeste 0 -- -- 19
2020-07-07 19:00:00 39.9 10 Oeste 28 Oeste 0 -- -- 18
2020-07-07 18:00:00 40.1 9 Noroeste 29 Oeste 0 -- -- 18
2020-07-07 17:00:00 40 15 Oeste 27 Oeste 0 -- -- 17
2020-07-07 16:00:00 39.1 11 Oeste 28 Noroeste 0 -- -- 19
2020-07-07 15:00:00 38.2 14 Oeste 37 Oeste 0 -- -- 20
2020-07-07 14:00:00 37.1 12 Oeste 31 Sudoeste 0 -- -- 23
2020-07-07 13:00:00 35.5 14 Sudoeste 23 Sudoeste 0 -- -- 24
2020-07-07 12:00:00 33.2 9 Sudoeste 18 Sudoeste 0 -- -- 33
2020-07-07 11:00:00 29.6 5 Oeste 13 Sudoeste 0 -- -- 41
2020-07-07 10:00:00 24.9 2 Sudoeste 6 Sur 0 -- -- 46
2020-07-07 09:00:00 19 2 Noroeste 5 Noroeste 0 -- -- 58
2020-07-07 08:00:00 15.9 0 Calma 5 Sudeste 0 -- -- 67
2020-07-07 07:00:00 15.5 3 Sudeste 4 Sudeste 0 -- -- 67
2020-07-07 06:00:00 17.1 0 Calma 5 Sudeste 0 -- -- 59
2020-07-07 05:00:00 18.5 0 Calma 5 Nordeste 0 -- -- 57
2020-07-07 04:00:00 19.8 0 Calma 5 Este 0 -- -- 55
2020-07-07 03:00:00 21.4 0 Calma 6 Sur 0 -- -- 51
2020-07-07 02:00:00 23.1 0 Calma 5 Noroeste 0 -- -- 46
2020-07-07 01:00:00 24.9 4 Noroeste 8 Norte 0 -- -- 38
2020-07-07 00:00:00 28.2 2 Noroeste 9 Noroeste 0 -- -- 32
2020-07-06 23:00:00 32 6 Noroeste 17 Noroeste 0 -- -- 27
2020-07-06 22:00:00 34.8 9 Noroeste 30 Noroeste 0 -- -- 25
2020-07-06 21:00:00 38 13 Noroeste 27 Noroeste 0 -- -- 22
2020-07-06 20:00:00 40 12 Noroeste 30 Noroeste 0 -- -- 19
2020-07-06 19:00:00 41.2 9 Noroeste 27 Noroeste 0 -- -- 18
2020-07-06 18:00:00 41.8 10 Oeste 28 Noroeste 0 -- -- 18
2020-07-06 17:00:00 41.3 12 Oeste 26 Noroeste 0 -- -- 19
2020-07-06 16:00:00 40.6 9 Oeste 30 Oeste 0 -- -- 18
2020-07-06 15:00:00 40.1 8 Este 24 Noroeste 0 -- -- 19
2020-07-06 14:00:00 39.5 9 Oeste 18 Noroeste 0 -- -- 20
2020-07-06 13:00:00 38.3 8 Nordeste 17 Este 0 -- -- 21
2020-07-06 12:00:00 36.2 8 Noroeste 15 Nordeste 0 -- -- 27
2020-07-06 11:00:00 34.6 9 Nordeste 17 Nordeste 0 -- -- 31
2020-07-06 10:00:00 30.3 6 Norte 14 Norte 0 -- -- 40
2020-07-06 09:00:00 24.9 0 Calma 8 Noroeste 0 -- -- 49
2020-07-06 08:00:00 20.4 0 Calma 8 Norte 0 -- -- 55
2020-07-06 07:00:00 20.3 0 Calma 4 Este 0 -- -- 53
2020-07-06 06:00:00 21.4 2 Este 5 Nordeste 0 -- -- 49
2020-07-06 05:00:00 24.3 0 Calma 12 Norte 0 -- -- 40
2020-07-06 04:00:00 27.8 8 Norte 17 Norte 0 -- -- 36
2020-07-06 03:00:00 27.4 6 Noroeste 16 Noroeste 0 -- -- 36
2020-07-06 02:00:00 26.1 5 Noroeste 11 Oeste 0 -- -- 38
2020-07-06 01:00:00 27.2 3 Oeste 13 Noroeste 0 -- -- 36
2020-07-06 00:00:00 28.7 4 Noroeste 12 Noroeste 0 -- -- 34
2020-07-05 23:00:00 31 4 Noroeste 12 Oeste 0 -- -- 28
2020-07-05 22:00:00 32.4 5 Nordeste 7 Nordeste 0 -- -- 26
2020-07-05 21:00:00 39.7 0 Calma 12 Sudeste 0 -- -- 18
2020-07-05 20:00:00 39.5 6 Este 17 Nordeste 0 -- -- 17
2020-07-05 19:00:00 39.3 6 Sudeste 36 Sur 0 -- -- 18
2020-07-05 18:00:00 40 6 Oeste 24 Sur 0 -- -- 18
2020-07-05 17:00:00 39.5 12 Sudoeste 22 Sur 0 -- -- 18
2020-07-05 16:00:00 39.6 14 Sudeste 26 Este 0 -- -- 18
2020-07-05 15:00:00 39.2 10 Sudeste 21 Sudeste 0 -- -- 18
2020-07-05 14:00:00 38 8 Sur 22 Sudeste 0 -- -- 21
2020-07-05 13:00:00 36.5 7 Este 18 Sudeste 0 -- -- 22
2020-07-05 12:00:00 34.7 8 Sudeste 18 Este 0 -- -- 25
2020-07-05 11:00:00 33.5 5 Este 15 Sudeste 0 -- -- 25
2020-07-05 10:00:00 29.4 0 Calma 6 Sur 0 -- -- 31
2020-07-05 09:00:00 24.4 0 Calma 8 Nordeste 0 -- -- 38
2020-07-05 08:00:00 18.5 0 Calma 6 Este 0 -- -- 51
2020-07-05 07:00:00 18 0 Calma 5 Noroeste 0 -- -- 50
2020-07-05 06:00:00 18.6 0 Calma 4 Sudeste 0 -- -- 53
2020-07-05 05:00:00 19.3 2 Norte 7 Noroeste 0 -- -- 52
2020-07-05 04:00:00 20.1 4 Noroeste 8 Noroeste 0 -- -- 56
2020-07-05 03:00:00 21.6 2 Sur 14 Norte 0 -- -- 50
2020-07-05 02:00:00 22.3 0 Calma 5 Sudeste 0 -- -- 46
2020-07-05 01:00:00 22.4 3 Sur 11 Norte 0 -- -- 39
2020-07-05 00:00:00 23.2 2 Sudeste 14 Noroeste 0 -- -- 33
2020-07-04 23:00:00 24.9 7 Nordeste 10 Nordeste 0 -- -- 30
2020-07-04 22:00:00 29.7 0 Calma 5 Nordeste 0 -- -- 28
2020-07-04 21:00:00 36.7 0 Calma 10 Noroeste 0 -- -- 19
2020-07-04 20:00:00 37.4 6 Norte 15 Norte 0 -- -- 18
2020-07-04 19:00:00 37.4 6 Noroeste 18 Sudoeste 0 -- -- 18
2020-07-04 18:00:00 37.3 7 Sur 19 Oeste 0 -- -- 19
2020-07-04 17:00:00 37.2 8 Nordeste 19 Sur 0 -- -- 19
2020-07-04 16:00:00 36.6 6 Este 20 Noroeste 0 -- -- 19
2020-07-04 15:00:00 35.4 6 Sudoeste 23 Oeste 0 -- -- 21
2020-07-04 14:00:00 34.6 9 Nordeste 23 Noroeste 0 -- -- 22
2020-07-04 13:00:00 33.6 8 Norte 23 Norte 0 -- -- 25
2020-07-04 12:00:00 31.9 4 Nordeste 13 Norte 0 -- -- 28
2020-07-04 11:00:00 29.6 6 Nordeste 17 Este 0 -- -- 31
2020-07-04 10:00:00 24.8 4 Noroeste 7 Noroeste 0 -- -- 45
2020-07-04 09:00:00 20.3 2 Oeste 5 Oeste 0 -- -- 59
2020-07-04 08:00:00 16.2 0 Calma 6 Nordeste 0 -- -- 69
2020-07-04 07:00:00 16.5 3 Sur 10 Oeste 0 -- -- 66
2020-07-04 06:00:00 15.8 0 Calma 5 Sur 0 -- -- 69
2020-07-04 05:00:00 15.9 2 Sur 6 Sur 0 -- -- 70
2020-07-04 04:00:00 15.9 2 Nordeste 6 Nordeste 0 -- -- 71
2020-07-04 03:00:00 16.9 0 Calma 5 Sur 0 -- -- 65
2020-07-04 02:00:00 17 0 Calma 2 Noroeste 0 -- -- 65
2020-07-04 01:00:00 18.2 0 Calma 2 Nordeste 0 -- -- 64
2020-07-04 00:00:00 21.2 0 Calma 7 Noroeste 0 -- -- 54
2020-07-03 23:00:00 26.3 6 Noroeste 11 Noroeste 0 -- -- 42
2020-07-03 22:00:00 29.4 7 Noroeste 18 Oeste 0 -- -- 35
2020-07-03 21:00:00 33.5 4 Norte 14 Oeste 0 -- -- 20
2020-07-03 20:00:00 33.7 6 Oeste 18 Sudoeste 0 -- -- 20
2020-07-03 19:00:00 33.9 10 Noroeste 19 Noroeste 0 -- -- 20
2020-07-03 18:00:00 33.6 8 Norte 23 Oeste 0 -- -- 21
2020-07-03 17:00:00 33 8 Noroeste 19 Norte 0 -- -- 22
2020-07-03 16:00:00 32 10 Oeste 21 Norte 0 -- -- 24
2020-07-03 15:00:00 30.8 8 Norte 32 Sudoeste 0 -- -- 26
2020-07-03 14:00:00 29.6 9 Noroeste 16 Noroeste 0 -- -- 29
2020-07-03 13:00:00 27.9 6 Norte 16 Este 0 -- -- 35
2020-07-03 12:00:00 26.7 6 Norte 19 Norte 0 -- -- 38
2020-07-03 11:00:00 23.3 9 Norte 15 Nordeste 0 -- -- 44
2020-07-03 10:00:00 19.5 5 Norte 10 Norte 0 -- -- 58
2020-07-03 09:00:00 15.1 3 Oeste 6 Oeste 0 -- -- 72
2020-07-03 08:00:00 11.3 0 Calma 4 Sur 0 -- -- 79
2020-07-03 07:00:00 10.8 2 Norte 7 Norte 0 -- -- 77
2020-07-03 06:00:00 11.3 0 Calma 4 Norte 0 -- -- 76
2020-07-03 05:00:00 11.2 0 Calma 5 Sudeste 0 -- -- 74
2020-07-03 04:00:00 11.7 2 Sudeste 4 Sudeste 0 -- -- 71
2020-07-03 03:00:00 13 0 Calma 6 Noroeste 0 -- -- 66
2020-07-03 02:00:00 14.5 0 Calma 6 Noroeste 0 -- -- 63
2020-07-03 01:00:00 17 5 Noroeste 11 Noroeste 0 -- -- 57
2020-07-03 00:00:00 18.8 7 Noroeste 15 Noroeste 0 -- -- 52
2020-07-02 23:00:00 21 9 Noroeste 21 Noroeste 0 -- -- 46
2020-07-02 22:00:00 23.5 9 Noroeste 24 Noroeste 0 -- -- 40
2020-07-02 21:00:00 26 15 Noroeste 33 Noroeste 0 -- -- 35
2020-07-02 20:00:00 28 17 Noroeste 32 Noroeste 0 -- -- 33
2020-07-02 19:00:00 29.3 14 Noroeste 33 Noroeste 0 -- -- 32
2020-07-02 18:00:00 30.4 16 Noroeste 34 Noroeste 0 -- -- 30
2020-07-02 17:00:00 30.9 17 Noroeste 33 Noroeste 0 -- -- 30
2020-07-02 16:00:00 30.4 15 Noroeste 33 Oeste 0 -- -- 36
2020-07-02 15:00:00 30.1 13 Noroeste 30 Noroeste 0 -- -- 38
2020-07-02 14:00:00 29.7 18 Noroeste 35 Oeste 0 -- -- 41
2020-07-02 13:00:00 28.5 8 Noroeste 24 Noroeste 0 -- -- 45
2020-07-02 12:00:00 26.9 10 Norte 21 Oeste 0 -- -- 46
2020-07-02 11:00:00 24.6 11 Noroeste 23 Noroeste 0 -- -- 54
2020-07-02 10:00:00 20.7 6 Noroeste 10 Noroeste 0 -- -- 72
2020-07-02 09:00:00 17.7 3 Oeste 7 Oeste 0 -- -- 84
2020-07-02 08:00:00 14.6 0 Calma 3 Nordeste 0 -- -- 90
2020-07-02 07:00:00 13.9 0 Calma 5 Nordeste 0 -- -- 85
2020-07-02 06:00:00 14.7 0 Calma 3 Este 0 -- -- 83
2020-07-02 05:00:00 15.9 2 Norte 8 Nordeste 0 -- -- 79
2020-07-02 04:00:00 17.8 0 Calma 8 Noroeste 0 -- -- 71
2020-07-02 03:00:00 19.6 5 Noroeste 10 Noroeste 0 -- -- 66
2020-07-02 02:00:00 21 5 Noroeste 10 Noroeste 0 -- -- 62
2020-07-02 01:00:00 22.7 6 Noroeste 11 Noroeste 0 -- -- 58
2020-07-02 00:00:00 23.8 5 Noroeste 10 Noroeste 0 -- -- 51
2020-07-01 23:00:00 26 6 Oeste 14 Oeste 0 -- -- 44
2020-07-01 22:00:00 28.2 7 Noroeste 26 Noroeste 0 -- -- 40
2020-07-01 21:00:00 31 14 Noroeste 29 Oeste 0 -- -- 35
2020-07-01 20:00:00 32.8 15 Noroeste 28 Oeste 0 -- -- 31
2020-07-01 19:00:00 34.3 15 Noroeste 29 Oeste 0 -- -- 30
2020-07-01 18:00:00 34.6 15 Oeste 29 Noroeste 0 -- -- 29
2020-07-01 17:00:00 34.2 15 Oeste 30 Oeste 0 -- -- 31
2020-07-01 16:00:00 33.6 13 Oeste 25 Oeste 0 -- -- 38
2020-07-01 15:00:00 32.3 13 Oeste 24 Oeste 0 -- -- 41
2020-07-01 14:00:00 30.5 10 Oeste 23 Sudoeste 0 -- -- 46
2020-07-01 13:00:00 28.4 12 Sudoeste 22 Sudoeste 0 -- -- 52
2020-07-01 12:00:00 25.7 7 Sudoeste 18 Sudoeste 0 -- -- 58
2020-07-01 11:00:00 23.4 8 Oeste 16 Oeste 0 -- -- 66
2020-07-01 10:00:00 21 7 Oeste 12 Oeste 0 -- -- 73
2020-07-01 09:00:00 18.8 4 Noroeste 9 Oeste 0 -- -- 80
2020-07-01 08:00:00 15.7 0 Calma 4 Este 0 -- -- 87
2020-07-01 07:00:00 15.5 2 Nordeste 6 Sur 0 -- -- 86
2020-07-01 06:00:00 16.2 2 Este 5 Nordeste 0 -- -- 81
2020-07-01 05:00:00 17.9 3 Oeste 7 Oeste 0 -- -- 72
2020-07-01 04:00:00 18.6 4 Sudoeste 7 Oeste 0 -- -- 71
2020-07-01 03:00:00 19.3 4 Sudoeste 6 Sudoeste 0 -- -- 66
2020-07-01 02:00:00 20.7 3 Sur 7 Noroeste 0 -- -- 64
2020-07-01 01:00:00 23 3 Noroeste 12 Oeste 0 -- -- 54
2020-07-01 00:00:00 24.8 4 Noroeste 9 Noroeste 0 -- -- 42
2020-06-30 23:00:00 27.3 5 Noroeste 16 Norte 0 -- -- 38
2020-06-30 22:00:00 29.9 7 Noroeste 27 Noroeste 0 -- -- 35
2020-06-30 21:00:00 32.7 14 Noroeste 29 Noroeste 0 -- -- 33
2020-06-30 20:00:00 34.5 16 Noroeste 32 Noroeste 0 -- -- 31
2020-06-30 19:00:00 35.5 16 Noroeste 36 Noroeste 0 -- -- 32
2020-06-30 18:00:00 36.4 16 Noroeste 35 Noroeste 0 -- -- 30
2020-06-30 17:00:00 36.4 17 Oeste 34 Oeste 0 -- -- 29
2020-06-30 16:00:00 36.2 13 Oeste 31 Oeste 0 -- -- 30
2020-06-30 15:00:00 36 14 Oeste 28 Oeste 0 -- -- 30
2020-06-30 14:00:00 35 15 Oeste 34 Oeste 0 -- -- 29
2020-06-30 13:00:00 33.5 12 Oeste 23 Sudoeste 0 -- -- 30
2020-06-30 12:00:00 31.1 13 Sudoeste 21 Sudoeste 0 -- -- 36
2020-06-30 11:00:00 28.2 9 Oeste 14 Sudoeste 0 -- -- 46
2020-06-30 10:00:00 24 0 Calma 6 Sudoeste 0 -- -- 56
2020-06-30 09:00:00 21.2 0 Calma -- -- 0 -- -- 71
2020-06-30 08:00:00 17.7 0 Calma -- -- 0 -- -- 80
2020-06-30 07:00:00 17.8 0 Calma -- -- 0 -- -- 75
2020-06-30 06:00:00 18.5 0 Calma -- -- 0 -- -- 71
2020-06-30 05:00:00 18.8 0 Calma -- -- 0 -- -- 67
2020-06-30 04:00:00 19.7 0 Calma -- -- 0 -- -- 67
2020-06-30 03:00:00 20.6 0 Calma -- -- 0 -- -- 66
2020-06-30 02:00:00 22 0 Calma -- -- 0 -- -- 61
2020-06-30 01:00:00 23.6 0 Calma -- -- 0 -- -- 58
2020-06-30 00:00:00 27.7 0 Calma 13 Noroeste 0 -- -- 46
2020-06-29 23:00:00 29.5 7 Noroeste 15 Noroeste 0 -- -- 42
2020-06-29 22:00:00 32 7 Noroeste 27 Noroeste 0 -- -- 36
2020-06-29 21:00:00 35.4 10 Noroeste 21 Oeste 0 -- -- 30
2020-06-29 20:00:00 36.9 8 Oeste 18 Noroeste 0 -- -- 26
2020-06-29 19:00:00 37 9 Oeste 22 Noroeste 0 -- -- 25
2020-06-29 18:00:00 36.7 9 Norte 32 Oeste 0 -- -- 27
2020-06-29 17:00:00 36.9 10 Oeste 23 Sudoeste 0 -- -- 27
2020-06-29 16:00:00 36.2 10 Noroeste 22 Oeste 0 -- -- 29
2020-06-29 15:00:00 35.4 11 Sudoeste 19 Noroeste 0 -- -- 32
2020-06-29 14:00:00 34.3 6 Oeste 19 Oeste 0 -- -- 35
2020-06-29 13:00:00 32.8 8 Sudoeste 15 Sudoeste 0 -- -- 38
2020-06-29 12:00:00 31.3 5 Norte 12 Este 0 -- -- 43
2020-06-29 11:00:00 29.4 5 Sudeste 15 Este 0 -- -- 48
2020-06-29 10:00:00 26.5 4 Nordeste 12 Nordeste 0 -- -- 55
2020-06-29 09:00:00 23.4 6 Norte 10 Norte 0 -- -- 64
2020-06-29 08:00:00 20.5 0 Calma 9 Norte 0 -- -- 71
2020-06-29 07:00:00 21 8 Norte 11 Norte 0 -- -- 70
2020-06-29 06:00:00 20.9 3 Oeste 9 Nordeste 0 -- -- 68
2020-06-29 05:00:00 21.8 4 Noroeste 12 Norte 0 -- -- 68
2020-06-29 04:00:00 23 2 Noroeste 14 Norte 0 -- -- 63
2020-06-29 03:00:00 24.1 6 Norte 14 Noroeste 0 -- -- 62
2020-06-29 02:00:00 24.6 8 Noroeste 13 Noroeste 0 -- -- 60
2020-06-29 01:00:00 25.3 6 Noroeste 13 Oeste 0 -- -- 59
2020-06-29 00:00:00 26.7 7 Oeste 12 Oeste 0 -- -- 53
2020-06-28 23:00:00 28.5 8 Noroeste 28 Norte 0 -- -- 50
2020-06-28 22:00:00 31 9 Noroeste 23 Noroeste 0 -- -- 43
2020-06-28 21:00:00 34 8 Norte 27 Norte 0 -- -- 32
2020-06-28 20:00:00 34.9 10 Noroeste 23 Noroeste 0 -- -- 31
2020-06-28 19:00:00 35.2 6 Noroeste 20 Noroeste 0 -- -- 30
2020-06-28 18:00:00 35.1 9 Oeste 24 Noroeste 0 -- -- 29
2020-06-28 17:00:00 34.5 13 Noroeste 24 Noroeste 0 -- -- 31
2020-06-28 16:00:00 33.9 10 Noroeste 29 Norte 0 -- -- 33
2020-06-28 15:00:00 32.9 10 Noroeste 20 Nordeste 0 -- -- 34
2020-06-28 14:00:00 31.9 8 Este 19 Nordeste 0 -- -- 38
2020-06-28 13:00:00 30.7 4 Nordeste 18 Norte 0 -- -- 40
2020-06-28 12:00:00 28.3 9 Norte 18 Norte 0 -- -- 47
2020-06-28 11:00:00 26.6 3 Este 15 Nordeste 0 -- -- 53
2020-06-28 10:00:00 24.4 6 Norte 17 Norte 0 -- -- 60
2020-06-28 09:00:00 21.6 6 Oeste 14 Norte 0 -- -- 70
2020-06-28 08:00:00 17.9 0 Calma 4 Noroeste 0 -- -- 83
2020-06-28 07:00:00 17.5 0 Calma 5 Nordeste 0 -- -- 76
2020-06-28 06:00:00 18.9 3 Oeste 9 Noroeste 0 -- -- 74
2020-06-28 05:00:00 20.2 2 Oeste 10 Noroeste 0 -- -- 71
2020-06-28 04:00:00 21.2 4 Noroeste 15 Noroeste 0 -- -- 69
2020-06-28 03:00:00 21.6 8 Noroeste 14 Noroeste 0 -- -- 69
2020-06-28 02:00:00 21.6 5 Norte 10 Noroeste 0 -- -- 64
2020-06-28 01:00:00 22.8 4 Noroeste 13 Noroeste 0 -- -- 59
2020-06-28 00:00:00 23.9 6 Noroeste 12 Noroeste 0 -- -- 56
2020-06-27 23:00:00 25.3 6 Noroeste 23 Noroeste 0 -- -- 53
2020-06-27 22:00:00 27.2 9 Noroeste 24 Noroeste 0 -- -- 48
2020-06-27 21:00:00 29.5 11 Noroeste 29 Noroeste 0 -- -- 44
2020-06-27 20:00:00 30.9 11 Noroeste 27 Noroeste 0 -- -- 42
2020-06-27 19:00:00 31.8 13 Noroeste 28 Noroeste 0 -- -- 39
2020-06-27 18:00:00 31.9 10 Noroeste 30 Noroeste 0 -- -- 40
2020-06-27 17:00:00 31.8 6 Norte 24 Noroeste 0 -- -- 38
2020-06-27 16:00:00 31.1 6 Noroeste 25 Oeste 0 -- -- 40
2020-06-27 15:00:00 29.7 7 Noroeste 22 Noroeste 0 -- -- 40
2020-06-27 14:00:00 28.2 9 Norte 20 Norte 0 -- -- 43
2020-06-27 13:00:00 27 6 Sudoeste 16 Noroeste 0 -- -- 49
2020-06-27 12:00:00 25.1 8 Oeste 15 Oeste 0 -- -- 55
2020-06-27 11:00:00 23.1 5 Sur 15 Noroeste 0 -- -- 62
2020-06-27 10:00:00 20.7 6 Noroeste 16 Noroeste 0 -- -- 71
2020-06-27 09:00:00 18.7 5 Noroeste 10 Norte 0 -- -- 78
2020-06-27 08:00:00 14.8 0 Calma 4 Oeste 0 -- -- 86
2020-06-27 07:00:00 14.6 4 Nordeste 6 Noroeste 0 -- -- 82
2020-06-27 06:00:00 15.1 4 Noroeste 6 Noroeste 0 -- -- 81
2020-06-27 05:00:00 14.9 3 Noroeste 5 Noroeste 0 -- -- 77
2020-06-27 04:00:00 15.7 2 Sur 7 Sur 0 -- -- 70
2020-06-27 03:00:00 16.6 4 Sudeste 6 Sur 0 -- -- 68
2020-06-27 02:00:00 18.1 0 Calma 5 Noroeste 0 -- -- 63
2020-06-27 01:00:00 20 3 Noroeste 15 Norte 0 -- -- 56
2020-06-27 00:00:00 20.6 6 Noroeste 19 Noroeste 0 -- -- 54
2020-06-26 23:00:00 22.1 5 Oeste 21 Noroeste 0 -- -- 50
2020-06-26 22:00:00 24 13 Noroeste 29 Noroeste 0 -- -- 49
2020-06-26 21:00:00 26.8 14 Noroeste 28 Noroeste 0 -- -- 44
2020-06-26 20:00:00 28.2 13 Noroeste 30 Noroeste 0 -- -- 38
2020-06-26 19:00:00 27.7 15 Noroeste 28 Noroeste 0 -- -- 37
2020-06-26 18:00:00 27.8 13 Noroeste 30 Oeste 0 -- -- 37
2020-06-26 17:00:00 28.2 14 Oeste 31 Noroeste 0 -- -- 37
2020-06-26 16:00:00 27.8 15 Oeste 27 Oeste 0 -- -- 40
2020-06-26 15:00:00 26.8 14 Noroeste 28 Noroeste 0 -- -- 42
2020-06-26 14:00:00 25.6 13 Noroeste 28 Oeste 0 -- -- 47
2020-06-26 13:00:00 24.2 13 Noroeste 27 Noroeste 0 -- -- 52
2020-06-26 12:00:00 21.7 10 Oeste 19 Sudoeste 0 -- -- 60
2020-06-26 11:00:00 19.8 4 Oeste 13 Oeste 0 -- -- 65
2020-06-26 10:00:00 17.2 3 Noroeste 12 Oeste 0 -- -- 78
2020-06-26 09:00:00 15.2 3 Sudoeste 6 Oeste 0 -- -- 86
2020-06-26 08:00:00 11.6 2 Sur 5 Sudeste 0 -- -- 91
2020-06-26 07:00:00 10.9 3 Sudeste 5 Sudeste 0 -- -- 87
2020-06-26 06:00:00 11.8 0 Calma 5 Sudeste 0 -- -- 86
2020-06-26 05:00:00 12.5 3 Sur 6 Sudeste 0 -- -- 83
2020-06-26 04:00:00 13.4 2 Sudeste 5 Sudeste 0 -- -- 80
2020-06-26 03:00:00 15.4 0 Calma 10 Oeste 0 -- -- 75
2020-06-26 02:00:00 17.7 5 Oeste 15 Oeste 0 -- -- 70
2020-06-26 01:00:00 19.7 8 Oeste 16 Oeste 0 -- -- 66
2020-06-26 00:00:00 21.4 5 Oeste 23 Noroeste 0 -- -- 56
2020-06-25 23:00:00 22.9 6 Noroeste 11 Oeste 0 -- -- 48
2020-06-25 22:00:00 25.4 7 Oeste 26 Oeste 0 -- -- 43
2020-06-25 21:00:00 28.1 14 Noroeste 30 Oeste 0 -- -- 36
2020-06-25 20:00:00 30.2 13 Oeste 30 Oeste 0 -- -- 35
2020-06-25 19:00:00 31.4 15 Noroeste 30 Noroeste 0 -- -- 32
2020-06-25 18:00:00 32 14 Oeste 30 Oeste 0 -- -- 36
2020-06-25 17:00:00 32.1 14 Oeste 32 Sudoeste 0 -- -- 38
2020-06-25 16:00:00 31.7 14 Oeste 36 Oeste 0 -- -- 39
2020-06-25 15:00:00 31.1 13 Oeste 29 Oeste 0 -- -- 41
2020-06-25 14:00:00 29.8 12 Oeste 32 Oeste 0 -- -- 43
2020-06-25 13:00:00 28 12 Oeste 32 Oeste 0 -- -- 45
2020-06-25 12:00:00 26 14 Oeste 27 Sudoeste 0 -- -- 51
2020-06-25 11:00:00 24.7 12 Oeste 18 Oeste 0 -- -- 55
2020-06-25 10:00:00 22 6 Noroeste 12 Oeste 0 -- -- 66
2020-06-25 09:00:00 19 0 Calma 6 Sudeste 0 -- -- 77
2020-06-25 08:00:00 15.8 4 Sudeste 6 Sudeste 0 -- -- 84
2020-06-25 07:00:00 15.7 0 Calma 4 Sur 0 -- -- 81
2020-06-25 06:00:00 16.8 3 Sudeste 7 Sudoeste 0 -- -- 81
2020-06-25 05:00:00 18 4 Sudoeste 10 Sudoeste 0 -- -- 77
2020-06-25 04:00:00 17.7 2 Sudoeste 5 Sudoeste 0 -- -- 71
2020-06-25 03:00:00 18.4 0 Calma 4 Sudeste 0 -- -- 71
2020-06-25 02:00:00 19.1 0 Calma 3 Nordeste 0 -- -- 61
2020-06-25 01:00:00 20.6 0 Calma 6 Nordeste 0 -- -- 53
2020-06-25 00:00:00 22.6 0 Calma 4 Nordeste 0 -- -- 48
2020-06-24 23:00:00 25.5 0 Calma 5 Norte 0 -- -- 40
2020-06-24 22:00:00 29.4 2 Norte 19 Noroeste 0 -- -- 35
2020-06-24 21:00:00 31.3 12 Noroeste 24 Noroeste 0 -- -- 32
2020-06-24 20:00:00 32.9 13 Noroeste 24 Noroeste 0 -- -- 33
2020-06-24 19:00:00 33.4 13 Noroeste 29 Noroeste 0 -- -- 32
2020-06-24 18:00:00 34.1 11 Noroeste 25 Oeste 0 -- -- 30
2020-06-24 17:00:00 34 10 Oeste 24 Noroeste 0 -- -- 31
2020-06-24 16:00:00 33.7 13 Oeste 26 Oeste 0 -- -- 33
2020-06-24 15:00:00 33.2 14 Oeste 26 Sudoeste 0 -- -- 34
2020-06-24 14:00:00 31.4 12 Oeste 26 Noroeste 0 -- -- 37
2020-06-24 13:00:00 30.1 14 Oeste 28 Oeste 0 -- -- 40
2020-06-24 12:00:00 28 14 Oeste 29 Oeste 0 -- -- 44
2020-06-24 11:00:00 24.8 13 Sudoeste 23 Oeste 0 -- -- 60
2020-06-24 10:00:00 21.1 11 Sudoeste 22 Sudoeste 0 -- -- 73
2020-06-24 09:00:00 19.3 10 Sudoeste 20 Sudoeste 0 -- -- 79
2020-06-24 08:00:00 17.8 4 Sudoeste 12 Sudoeste 0 -- -- 84
2020-06-24 07:00:00 18.1 3 Oeste 12 Oeste 0 -- -- 75
2020-06-24 06:00:00 19 6 Noroeste 13 Oeste 0 -- -- 74
2020-06-24 05:00:00 20 9 Noroeste 19 Oeste 0 -- -- 72
2020-06-24 04:00:00 21.5 6 Oeste 18 Oeste 0 -- -- 67
2020-06-24 03:00:00 22.7 9 Sudoeste 17 Sudoeste 0 -- -- 67
2020-06-24 02:00:00 23.3 5 Sur 9 Sudeste 0 -- -- 62
2020-06-24 01:00:00 24 0 Calma 6 Oeste 0 -- -- 58
2020-06-24 00:00:00 26.5 2 Noroeste 8 Oeste 0 -- -- 53
2020-06-23 23:00:00 31.1 3 Noroeste 17 Oeste 0 -- -- 41
2020-06-23 22:00:00 34.1 9 Noroeste 22 Noroeste 0 -- -- 37
2020-06-23 21:00:00 37 7 Oeste 16 Noroeste 0 -- -- 28
2020-06-23 20:00:00 37.4 7 Oeste 17 Oeste 0 -- -- 26
2020-06-23 19:00:00 38.1 10 Sudoeste 26 Sudoeste 0 -- -- 24
2020-06-23 18:00:00 38.5 6 Sudoeste 23 Sudoeste 0 -- -- 24
2020-06-23 17:00:00 38.1 10 Sur 23 Sudoeste 0 -- -- 25
2020-06-23 16:00:00 37.7 7 Sudoeste 24 Sudoeste 0 -- -- 23
2020-06-23 15:00:00 36.9 11 Sudoeste 25 Oeste 0 -- -- 27
2020-06-23 14:00:00 35.9 9 Sur 19 Sudoeste 0 -- -- 31
2020-06-23 13:00:00 34.1 9 Sudeste 19 Sur 0 -- -- 33
2020-06-23 12:00:00 32.1 9 Sudoeste 15 Sudoeste 0 -- -- 36
2020-06-23 11:00:00 30.1 2 Sur 12 Sur 0 -- -- 40
2020-06-23 10:00:00 26.6 7 Sur 16 Sur 0 -- -- 45
2020-06-23 09:00:00 23.5 6 Sudeste 10 Sudeste 0 -- -- 61
2020-06-23 08:00:00 19.2 0 Calma 10 Sudeste 0 -- -- 67
2020-06-23 07:00:00 19.6 10 Este 16 Sudeste 0 -- -- 66
2020-06-23 06:00:00 17.8 0 Calma -- -- 0 -- -- 73
2020-06-23 05:00:00 19.1 0 Calma -- -- 0 -- -- 70
2020-06-23 04:00:00 20.4 0 Calma 7 Sur 0 -- -- 65
2020-06-23 03:00:00 21.9 0 Calma 7 Sudoeste 0 -- -- 63
2020-06-23 02:00:00 23.4 3 Sudoeste 12 Norte 0 -- -- 55
2020-06-23 01:00:00 24.7 0 Calma 7 Noroeste 0 -- -- 46
2020-06-23 00:00:00 25.8 0 Calma 19 Norte 0 -- -- 38
2020-06-22 23:00:00 25.7 0 Calma 6 Noroeste 0 -- -- 35
2020-06-22 22:00:00 30.6 0 Calma 5 Oeste 0 -- -- 31
2020-06-22 21:00:00 38.5 3 Noroeste 9 Oeste 0 -- -- 19
2020-06-22 20:00:00 38.5 4 Oeste 16 Oeste 0 -- -- 18
2020-06-22 19:00:00 38.9 9 Oeste 17 Noroeste 0 -- -- 18
2020-06-22 18:00:00 38.4 7 Norte 21 Sudoeste 0 -- -- 18
2020-06-22 17:00:00 37.9 9 Este 20 Sur 0 -- -- 20
2020-06-22 16:00:00 37.6 8 Sudeste 24 Sur 0 -- -- 21
2020-06-22 15:00:00 37.1 8 Sudeste 21 Sudeste 0 -- -- 22
2020-06-22 14:00:00 36.1 11 Sudoeste 20 Sur 0 -- -- 23
2020-06-22 13:00:00 34.7 7 Este 21 Sudeste 0 -- -- 29
2020-06-22 12:00:00 32.6 8 Sudeste 17 Sudeste 0 -- -- 32
2020-06-22 11:00:00 30.4 7 Este 14 Sudeste 0 -- -- 37
2020-06-22 10:00:00 26.5 6 Norte 13 Norte 0 -- -- 51
2020-06-22 09:00:00 23.8 5 Norte 14 Norte 0 -- -- 60
2020-06-22 08:00:00 19.3 0 Calma 9 Norte 0 -- -- 74
2020-06-22 07:00:00 21.1 8 Norte 21 Norte 0 -- -- 67
2020-06-22 06:00:00 20.8 3 Oeste 21 Norte 0 -- -- 67
2020-06-22 05:00:00 22.2 9 Norte 18 Norte 0 -- -- 65
2020-06-22 04:00:00 22.5 8 Norte 15 Norte 0 -- -- 64
2020-06-22 03:00:00 21.3 6 Noroeste 13 Noroeste 0 -- -- 65
2020-06-22 02:00:00 21.4 5 Noroeste 10 Noroeste 0 -- -- 61
2020-06-22 01:00:00 20.6 0 Calma 4 Noroeste 0 -- -- 60
2020-06-22 00:00:00 22.2 0 Calma 8 Norte 0 -- -- 55
2020-06-21 23:00:00 27.4 3 Noroeste 13 Noroeste 0 -- -- 43
2020-06-21 22:00:00 30.3 6 Noroeste 14 Norte 0 -- -- 35
2020-06-21 21:00:00 33.2 8 Norte 20 Norte 0 -- -- 23
2020-06-21 20:00:00 34.1 10 Norte 23 Noroeste 0 -- -- 23
2020-06-21 19:00:00 34.3 10 Norte 24 Norte 0 -- -- 24
2020-06-21 18:00:00 34.9 9 Noroeste 26 Norte 0 -- -- 24
2020-06-21 17:00:00 34.3 10 Norte 31 Nordeste 0 -- -- 24
2020-06-21 16:00:00 33.5 12 Norte 24 Norte 0 -- -- 24
2020-06-21 15:00:00 32.4 10 Norte 32 Noroeste 0 -- -- 23
2020-06-21 14:00:00 30.6 10 Norte 22 Noroeste 0 -- -- 25
2020-06-21 13:00:00 29.2 9 Norte 19 Nordeste 0 -- -- 31
2020-06-21 12:00:00 26.6 8 Norte 16 Norte 0 -- -- 39
2020-06-21 11:00:00 23.5 12 Norte 18 Nordeste 0 -- -- 44
2020-06-21 10:00:00 19 5 Noroeste 9 Noroeste 0 -- -- 68
2020-06-21 09:00:00 15.6 0 Calma 4 Noroeste 0 -- -- 87
2020-06-21 08:00:00 11.4 0 Calma 3 Nordeste 0 -- -- 91
2020-06-21 07:00:00 10.5 0 Calma 3 Sudeste 0 -- -- 89
2020-06-21 06:00:00 10.8 0 Calma 4 Sudeste 0 -- -- 86
2020-06-21 05:00:00 11.4 3 Este 4 Sudeste 0 -- -- 87
2020-06-21 04:00:00 12 0 Calma 4 Sudeste 0 -- -- 82
2020-06-21 03:00:00 13.3 0 Calma 6 Sudeste 0 -- -- 79
2020-06-21 02:00:00 15.7 4 Sudeste 6 Sudeste 0 -- -- 67
2020-06-21 01:00:00 18.6 4 Noroeste 9 Noroeste 0 -- -- 59
2020-06-21 00:00:00 21.1 5 Noroeste 14 Noroeste 0 -- -- 52
2020-06-20 23:00:00 23.6 6 Noroeste 17 Noroeste 0 -- -- 49
2020-06-20 22:00:00 26.1 12 Noroeste 25 Noroeste 0 -- -- 46
2020-06-20 21:00:00 29.2 15 Noroeste 28 Noroeste 0 -- -- 34
2020-06-20 20:00:00 31.4 14 Noroeste 30 Oeste 0 -- -- 28
2020-06-20 19:00:00 32.2 14 Oeste 36 Noroeste 0 -- -- 26
2020-06-20 18:00:00 32.7 13 Noroeste 30 Noroeste 0 -- -- 27
2020-06-20 17:00:00 32.5 10 Noroeste 26 Noroeste 0 -- -- 28
2020-06-20 16:00:00 32 10 Norte 26 Sudoeste 0 -- -- 29
2020-06-20 15:00:00 30.9 8 Norte 23 Noroeste 0 -- -- 31
2020-06-20 14:00:00 29.4 10 Sudoeste 18 Sur 0 -- -- 34
2020-06-20 13:00:00 27.6 6 Oeste 17 Sudoeste 0 -- -- 41
2020-06-20 12:00:00 25.3 5 Oeste 15 Oeste 0 -- -- 46
2020-06-20 11:00:00 22.5 6 Sudoeste 12 Sudoeste 0 -- -- 53
2020-06-20 10:00:00 18.2 4 Oeste 8 Sudoeste 0 -- -- 67
2020-06-20 09:00:00 15.3 2 Sudoeste 4 Oeste 0 -- -- 77
2020-06-20 08:00:00 11.6 0 Calma 3 Sudeste 0 -- -- 88
2020-06-20 07:00:00 10.4 0 Calma 3 Este 0 -- -- 85
2020-06-20 06:00:00 10.8 0 Calma 3 Sudeste 0 -- -- 84
2020-06-20 05:00:00 11.1 3 Sudeste 4 Sudeste 0 -- -- 81
2020-06-20 04:00:00 11.7 0 Calma 6 Nordeste 0 -- -- 80
2020-06-20 03:00:00 12.7 0 Calma 4 Este 0 -- -- 74
2020-06-20 02:00:00 13.9 0 Calma 2 Sur 0 -- -- 71
2020-06-20 01:00:00 15.7 0 Calma 6 Oeste 0 -- -- 65
2020-06-20 00:00:00 19.4 3 Oeste 13 Oeste 0 -- -- 54
2020-06-19 23:00:00 23.1 6 Oeste 13 Noroeste 0 -- -- 42
2020-06-19 22:00:00 25.4 8 Oeste 19 Noroeste 0 -- -- 37
2020-06-19 21:00:00 27.9 10 Noroeste 23 Noroeste 0 -- -- 29
2020-06-19 20:00:00 29.7 12 Noroeste 26 Noroeste 0 -- -- 27
2020-06-19 19:00:00 30.5 11 Oeste 38 Sudoeste 0 -- -- 29
2020-06-19 18:00:00 30.4 11 Noroeste 26 Oeste 0 -- -- 31
2020-06-19 17:00:00 30.3 5 Este 24 Sudoeste 0 -- -- 30
2020-06-19 16:00:00 29.3 7 Noroeste 22 Oeste 0 -- -- 31
2020-06-19 15:00:00 27.6 8 Noroeste 23 Sudoeste 0 -- -- 35
2020-06-19 14:00:00 26 8 Noroeste 18 Oeste 0 -- -- 41
2020-06-19 13:00:00 24.8 8 Sudoeste 14 Sur 0 -- -- 46
2020-06-19 12:00:00 22.3 9 Sudoeste 15 Sudoeste 0 -- -- 50
2020-06-19 11:00:00 19.9 4 Sudoeste 12 Sudoeste 0 -- -- 58
2020-06-19 10:00:00 17.1 3 Sur 8 Sudoeste 0 -- -- 67
2020-06-19 09:00:00 13.7 0 Calma 5 Noroeste 0 -- -- 80
2020-06-19 08:00:00 10.2 0 Calma 4 Este 0 -- -- 89
2020-06-19 07:00:00 9.4 0 Calma 4 Sudeste 0 -- -- 87
2020-06-19 06:00:00 9.7 3 Sudeste 5 Sudeste 0 -- -- 85
2020-06-19 05:00:00 10.5 0 Calma 4 Sudeste 0 -- -- 81
2020-06-19 04:00:00 11.7 0 Calma 3 Norte 0 -- -- 76
2020-06-19 03:00:00 13.3 0 Calma 7 Oeste 0 -- -- 66
2020-06-19 02:00:00 15.3 3 Noroeste 7 Noroeste 0 -- -- 59
2020-06-19 01:00:00 17.2 4 Noroeste 10 Oeste 0 -- -- 56
2020-06-19 00:00:00 18.9 6 Noroeste 15 Noroeste 0 -- -- 53
2020-06-18 23:00:00 20.8 6 Noroeste 17 Noroeste 0 -- -- 50
2020-06-18 22:00:00 23 10 Noroeste 29 Noroeste 0 -- -- 47
2020-06-18 21:00:00 25.9 17 Noroeste 33 Noroeste 0 -- -- 43
2020-06-18 20:00:00 28 13 Noroeste 31 Oeste 0 -- -- 37
2020-06-18 19:00:00 28.5 14 Noroeste 33 Oeste 0 -- -- 36
2020-06-18 18:00:00 29.3 14 Oeste 30 Noroeste 0 -- -- 37
2020-06-18 17:00:00 28.4 8 Noroeste 19 Noroeste 0 -- -- 39
2020-06-18 16:00:00 28.2 7 Oeste 23 Oeste 0 -- -- 38
2020-06-18 15:00:00 27.5 8 Oeste 25 Oeste 0 -- -- 40
2020-06-18 14:00:00 25.9 5 Sudoeste 19 Noroeste 0 -- -- 43
2020-06-18 13:00:00 24.4 8 Oeste 16 Noroeste 0 -- -- 48
2020-06-18 12:00:00 22.8 7 Sudoeste 17 Sur 0 -- -- 52
2020-06-18 11:00:00 20.4 3 Este 11 Sudeste 0 -- -- 59
2020-06-18 10:00:00 16.6 4 Sudoeste 7 Sudoeste 0 -- -- 72
2020-06-18 09:00:00 13.6 2 Sur 5 Sur 0 -- -- 82
2020-06-18 08:00:00 9.4 0 Calma -- -- 0 -- -- 88
2020-06-18 07:00:00 9.1 0 Calma -- -- 0 -- -- 88
2020-06-18 06:00:00 9.7 0 Calma 5 Sur 0 -- -- 87
2020-06-18 05:00:00 10.2 2 Sudeste 4 Sudeste 0 -- -- 82
2020-06-18 04:00:00 10.9 3 Sudeste 5 Este 0 -- -- 81
2020-06-18 03:00:00 12.2 0 Calma 6 Nordeste 0 -- -- 74
2020-06-18 02:00:00 14.2 0 Calma 10 Norte 0 -- -- 64
2020-06-18 01:00:00 16.6 5 Noroeste 13 Noroeste 0 -- -- 60
2020-06-18 00:00:00 18.1 4 Noroeste 10 Norte 0 -- -- 55
2020-06-17 23:00:00 19.8 3 Noroeste 15 Noroeste 0 -- -- 52
2020-06-17 22:00:00 21.8 9 Noroeste 24 Noroeste 0 -- -- 49
2020-06-17 21:00:00 24.3 12 Noroeste 25 Oeste 0 -- -- 44
2020-06-17 20:00:00 25.5 12 Noroeste 28 Noroeste 0 -- -- 40
2020-06-17 19:00:00 25.9 14 Noroeste 30 Oeste 0 -- -- 39
2020-06-17 18:00:00 26.5 10 Noroeste 30 Noroeste 0 -- -- 39
2020-06-17 17:00:00 26.3 10 Noroeste 31 Oeste 0 -- -- 38
2020-06-17 16:00:00 25.6 10 Noroeste 27 Noroeste 0 -- -- 38
2020-06-17 15:00:00 24.6 10 Norte 24 Oeste 0 -- -- 38
2020-06-17 14:00:00 22.9 10 Norte 36 Norte 0 -- -- 42
2020-06-17 13:00:00 22 10 Norte 22 Norte 0 -- -- 45
2020-06-17 12:00:00 20.3 10 Norte 26 Nordeste 0 -- -- 49
2020-06-17 11:00:00 18.6 10 Noroeste 20 Norte 0 -- -- 54
2020-06-17 10:00:00 16.8 8 Noroeste 18 Noroeste 0 -- -- 61
2020-06-17 09:00:00 14.6 5 Noroeste 10 Oeste 0 -- -- 70
2020-06-17 08:00:00 11.6 3 Noroeste 11 Norte 0 -- -- 78
2020-06-17 07:00:00 11.6 8 Norte 12 Norte 0 -- -- 76
2020-06-17 06:00:00 12.4 2 Nordeste 11 Noroeste 0 -- -- 72
2020-06-17 05:00:00 14.1 7 Noroeste 17 Noroeste 0 -- -- 69
2020-06-17 04:00:00 14.9 11 Norte 31 Norte 0 -- -- 68
2020-06-17 03:00:00 15.2 8 Norte 17 Norte 0 -- -- 67
2020-06-17 02:00:00 15.8 9 Norte 26 Norte 0 -- -- 65
2020-06-17 01:00:00 17 8 Norte 18 Norte 0 -- -- 63
2020-06-17 00:00:00 18.4 4 Noroeste 17 Noroeste 0 -- -- 62
2020-06-16 23:00:00 20 8 Norte 24 Norte 0 -- -- 60
2020-06-16 22:00:00 21.6 13 Norte 30 Noroeste 0 -- -- 56
2020-06-16 21:00:00 24 18 Norte 31 Norte 0 -- -- 51
2020-06-16 20:00:00 26 16 Noroeste 37 Oeste 0 -- -- 45
2020-06-16 19:00:00 27 17 Noroeste 37 Noroeste 0 -- -- 42
2020-06-16 18:00:00 27.2 17 Noroeste 35 Oeste 0 -- -- 42
2020-06-16 17:00:00 26.4 14 Noroeste 34 Oeste 0 -- -- 45
2020-06-16 16:00:00 26.8 15 Noroeste 32 Noroeste 0 -- -- 45
2020-06-16 15:00:00 25.5 12 Noroeste 30 Noroeste 0 -- -- 48
2020-06-16 14:00:00 25.2 13 Oeste 27 Oeste 0 -- -- 50
2020-06-16 13:00:00 23.4 10 Noroeste 26 Noroeste 0 -- -- 54
2020-06-16 12:00:00 21.8 10 Noroeste 23 Noroeste 0 -- -- 56
2020-06-16 11:00:00 19.7 9 Oeste 15 Oeste 0 -- -- 62
2020-06-16 10:00:00 17.1 6 Noroeste 12 Noroeste 0 -- -- 71
2020-06-16 09:00:00 15 2 Oeste 6 Noroeste 0 -- -- 79
2020-06-16 08:00:00 11.6 0 Calma 4 Sudeste 0 -- -- 89
2020-06-16 07:00:00 10.7 0 Calma 4 Este 0 -- -- 85
2020-06-16 06:00:00 11.1 0 Calma 3 Sudeste 0 -- -- 82
2020-06-16 05:00:00 11.8 3 Noroeste 5 Noroeste 0 -- -- 83
2020-06-16 04:00:00 13 2 Sudoeste 6 Noroeste 0 -- -- 74
2020-06-16 03:00:00 15.5 0 Calma 11 Norte 0 -- -- 70
2020-06-16 02:00:00 16.9 5 Noroeste 10 Noroeste 0 -- -- 66
2020-06-16 01:00:00 18.3 7 Noroeste 23 Noroeste 0 -- -- 63
2020-06-16 00:00:00 19.3 7 Noroeste 13 Noroeste 0 -- -- 60
2020-06-15 23:00:00 20.5 6 Noroeste 18 Noroeste 0 -- -- 55
2020-06-15 22:00:00 22.1 12 Noroeste 27 Noroeste 0 -- -- 51
2020-06-15 21:00:00 23.8 10 Noroeste 32 Noroeste 0 -- -- 46
2020-06-15 20:00:00 25.4 17 Noroeste 31 Noroeste 0 -- -- 42
2020-06-15 19:00:00 26.7 13 Noroeste 29 Noroeste 0 -- -- 38
2020-06-15 18:00:00 27.2 11 Oeste 32 Noroeste 0 -- -- 38
2020-06-15 17:00:00 26.7 15 Oeste 31 Oeste 0 -- -- 38
2020-06-15 16:00:00 26.2 10 Norte 25 Noroeste 0 -- -- 41
2020-06-15 15:00:00 25.6 7 Norte 26 Oeste 0 -- -- 44
2020-06-15 14:00:00 24.7 10 Sudoeste 25 Oeste 0 -- -- 44
2020-06-15 13:00:00 22.9 8 Oeste 20 Oeste 0 -- -- 46
2020-06-15 12:00:00 21.4 5 Noroeste 16 Oeste 0 -- -- 53
2020-06-15 11:00:00 19 8 Sudoeste 13 Oeste 0 -- -- 62
2020-06-15 10:00:00 16.6 2 Sur 8 Sudoeste 0 -- -- 71
2020-06-15 09:00:00 13.6 3 Sudeste 6 Sudeste 0 -- -- 84
2020-06-15 08:00:00 9.5 2 Sudeste 7 Nordeste 0 -- -- 91
2020-06-15 07:00:00 8.5 3 Sudeste 4 Sudeste 0 -- -- 89
2020-06-15 06:00:00 9 0 Calma 4 Este 0 -- -- 88
2020-06-15 05:00:00 9.8 0 Calma 4 Este 0 -- -- 84
2020-06-15 04:00:00 11 3 Nordeste 4 Nordeste 0 -- -- 80
2020-06-15 03:00:00 12.6 3 Nordeste 8 Norte 0 -- -- 77
2020-06-15 02:00:00 15.1 5 Noroeste 12 Noroeste 0 -- -- 68
2020-06-15 01:00:00 16.5 6 Noroeste 18 Norte 0 -- -- 63
2020-06-15 00:00:00 17.5 5 Norte 12 Norte 0 -- -- 60